Time;durP1;ratioP1;P1;durP2;ratioP2;P2;SDS_P1;SDS_P2;PMS_P1;PMS_P2;Temp;Humidity;BMP_temperature;BMP_pressure;BME280_temperature;BME280_humidity;BME280_pressure;Samples;Min_cycle;Max_cycle;Signal;HPM_P1;HPM_P2
2023/05/28 00:02:24;;;;;;;5.63;3.47;;;;;;;23.00;39.20;96267.25;5044789;28;20039;-34
2023/05/28 00:04:49;;;;;;;7.32;3.63;;;;;;;22.97;38.49;96265.56;5037631;28;20108;-34
2023/05/28 00:07:21;;;;;;;5.38;3.88;;;;;;;23.12;38.92;96261.16;5038093;28;20136;-33
2023/05/28 00:09:47;;;;;;;5.32;3.78;;;;;;;23.05;39.02;96267.25;5044806;28;20014;-33
2023/05/28 00:12:12;;;;;;;6.72;4.00;;;;;;;22.99;38.89;96263.78;5045137;28;20013;-33
2023/05/28 00:14:38;;;;;;;5.22;3.80;;;;;;;23.03;38.80;96269.00;5044536;28;20021;-33
2023/05/28 00:17:03;;;;;;;7.25;3.97;;;;;;;23.02;39.14;96259.97;5037234;28;20033;-33
2023/05/28 00:19:29;;;;;;;7.15;3.90;;;;;;;23.06;38.77;96259.69;5037695;28;20048;-33
2023/05/28 00:21:54;;;;;;;5.88;3.60;;;;;;;22.99;39.18;96261.00;5043805;28;20514;-33
2023/05/28 00:24:20;;;;;;;5.93;4.00;;;;;;;23.09;39.14;96258.69;5037412;28;20021;-33
2023/05/28 00:26:45;;;;;;;9.00;4.18;;;;;;;22.98;38.67;96258.75;5044573;28;20108;-33
2023/05/28 00:29:11;;;;;;;6.22;3.95;;;;;;;22.87;39.08;96259.59;5044029;28;20043;-33
2023/05/28 00:31:36;;;;;;;6.57;3.58;;;;;;;22.86;39.34;96258.06;5044675;28;20030;-33
2023/05/28 00:34:02;;;;;;;6.15;3.88;;;;;;;22.90;38.77;96258.53;5037276;28;20025;-33
2023/05/28 00:36:27;;;;;;;7.85;3.92;;;;;;;22.92;39.42;96256.00;5036926;28;20030;-33
2023/05/28 00:38:52;;;;;;;5.65;3.97;;;;;;;22.88;39.29;96255.53;5039367;28;20028;-35
2023/05/28 00:41:20;;;;;;;6.45;3.47;;;;;;;22.70;39.65;96253.34;5047083;28;20028;-33
2023/05/28 00:43:46;;;;;;;6.30;3.80;;;;;;;22.86;39.40;96252.53;5039099;28;20465;-34
2023/05/28 00:46:11;;;;;;;7.25;3.95;;;;;;;22.96;39.62;96255.75;5043665;28;20032;-33
2023/05/28 00:48:38;;;;;;;7.22;3.92;;;;;;;22.92;39.89;96248.47;5037009;28;20076;-33
2023/05/28 00:51:04;;;;;;;5.60;3.78;;;;;;;22.87;39.66;96251.28;5037299;28;20464;-33
2023/05/28 00:53:29;;;;;;;5.95;3.72;;;;;;;22.70;39.72;96256.88;5036771;28;20053;-33
2023/05/28 00:55:55;;;;;;;6.15;3.92;;;;;;;22.64;39.58;96258.16;5036985;28;20036;-33
2023/05/28 00:58:21;;;;;;;6.05;4.03;;;;;;;22.73;39.81;96255.09;5036413;28;20036;-33
2023/05/28 01:00:47;;;;;;;6.60;4.18;;;;;;;22.83;39.34;96245.28;5049812;28;20542;-33
2023/05/28 01:03:12;;;;;;;7.13;4.10;;;;;;;22.83;39.52;96251.56;5044176;28;20025;-33
2023/05/28 01:05:38;;;;;;;5.53;3.70;;;;;;;22.88;39.67;96250.00;5036791;28;20359;-33
2023/05/28 01:08:06;;;;;;;7.45;4.10;;;;;;;22.90;39.63;96248.22;5036270;28;20032;-33
2023/05/28 01:10:33;;;;;;;6.68;3.47;;;;;;;22.91;39.70;96248.97;5036266;28;20104;-33
2023/05/28 01:13:00;;;;;;;9.93;3.88;;;;;;;22.65;39.96;96245.84;5036528;28;20389;-33
2023/05/28 01:15:26;;;;;;;5.22;3.88;;;;;;;22.81;40.23;96247.78;5043955;28;20358;-33
2023/05/28 01:17:59;;;;;;;5.75;4.43;;;;;;;22.72;39.45;96242.53;5042497;28;20030;-34
2023/05/28 01:20:29;;;;;;;5.47;4.00;;;;;;;22.83;39.51;96234.97;5037377;28;20025;-33
2023/05/28 01:23:03;;;;;;;7.82;3.72;;;;;;;22.53;40.18;96234.09;5041775;28;20021;-34
2023/05/28 01:25:30;;;;;;;6.57;4.20;;;;;;;22.66;39.77;96228.75;5036392;28;20033;-33
2023/05/28 01:27:55;;;;;;;6.30;3.95;;;;;;;22.72;39.82;96226.72;5036134;28;20044;-33
2023/05/28 01:30:21;;;;;;;6.50;3.90;;;;;;;22.67;40.02;96230.25;5043317;28;20052;-34
2023/05/28 01:32:47;;;;;;;7.35;4.10;;;;;;;22.66;39.94;96233.53;5038090;28;20447;-35
2023/05/28 01:35:12;;;;;;;5.97;4.05;;;;;;;22.61;40.16;96232.31;5041426;28;20100;-33
2023/05/28 01:37:46;;;;;;;6.78;4.20;;;;;;;22.63;40.03;96229.00;5035585;28;20503;-34
2023/05/28 01:40:14;;;;;;;4.75;3.97;;;;;;;22.65;40.13;96232.00;5035863;28;20492;-33
2023/05/28 01:42:40;;;;;;;7.07;4.30;;;;;;;22.56;40.39;96233.81;5036085;28;20584;-34
2023/05/28 01:45:07;;;;;;;7.03;3.50;;;;;;;22.52;40.45;96236.09;5035881;28;20112;-33
2023/05/28 01:47:33;;;;;;;5.88;3.95;;;;;;;22.53;40.44;96229.31;5041508;28;20033;-33
2023/05/28 01:49:59;;;;;;;7.38;3.75;;;;;;;22.57;40.30;96227.03;5043246;28;20029;-33
2023/05/28 01:52:24;;;;;;;5.43;3.70;;;;;;;22.65;40.14;96226.47;5035689;28;20029;-33
2023/05/28 01:54:50;;;;;;;11.02;4.25;;;;;;;22.86;39.54;96219.38;5034936;28;20060;-33
2023/05/28 01:57:15;;;;;;;6.97;4.22;;;;;;;22.60;40.32;96222.50;5038360;28;20020;-34
2023/05/28 01:59:41;;;;;;;5.63;4.03;;;;;;;22.53;39.98;96220.28;5045633;28;20025;-35
2023/05/28 02:02:07;;;;;;;8.60;4.00;;;;;;;22.63;39.71;96215.19;5037321;28;20032;-33
2023/05/28 02:04:32;;;;;;;5.82;3.90;;;;;;;22.53;40.42;96215.50;5033826;28;20029;-34
2023/05/28 02:06:58;;;;;;;5.00;4.03;;;;;;;22.49;40.28;96226.09;5035091;28;20017;-33
2023/05/28 02:09:23;;;;;;;6.25;4.10;;;;;;;22.70;40.28;96226.47;5035534;28;20023;-33
2023/05/28 02:11:49;;;;;;;6.50;4.15;;;;;;;22.41;40.51;96238.91;5034241;28;20462;-33
2023/05/28 02:14:15;;;;;;;4.57;3.72;;;;;;;22.51;40.22;96231.84;5035331;28;20017;-35
2023/05/28 02:16:52;;;;;;;6.93;3.67;;;;;;;22.55;40.40;96226.78;5042026;28;20028;-33
2023/05/28 02:19:18;;;;;;;10.30;3.90;;;;;;;22.27;41.07;96226.16;5042076;28;20032;-34
2023/05/28 02:21:44;;;;;;;6.28;3.88;;;;;;;22.51;40.57;96226.31;5034879;28;20075;-33
2023/05/28 02:24:10;;;;;;;6.82;3.90;;;;;;;22.52;40.55;96224.28;5035084;28;20477;-33
2023/05/28 02:26:35;;;;;;;5.75;3.83;;;;;;;22.50;40.05;96224.81;5035063;28;20029;-33
2023/05/28 02:29:01;;;;;;;5.93;3.83;;;;;;;22.30;40.53;96227.16;5034205;28;20020;-33
2023/05/28 02:31:27;;;;;;;6.07;4.10;;;;;;;22.26;40.77;96224.66;5035140;28;20039;-33
2023/05/28 02:33:52;;;;;;;7.07;4.05;;;;;;;22.33;40.88;96224.16;5042075;28;20095;-33
2023/05/28 02:36:18;;;;;;;5.60;3.78;;;;;;;22.21;41.09;96222.69;5041892;28;20025;-33
2023/05/28 02:38:43;;;;;;;6.75;3.67;;;;;;;22.37;40.40;96219.13;5034665;28;20021;-34
2023/05/28 02:41:09;;;;;;;6.78;3.75;;;;;;;22.31;41.04;96215.63;5034644;28;20473;-33
2023/05/28 02:43:35;;;;;;;6.03;3.80;;;;;;;22.50;40.70;96221.31;5034398;28;20025;-33
2023/05/28 02:46:01;;;;;;;5.32;4.03;;;;;;;22.59;40.56;96221.00;5042098;28;20495;-33
2023/05/28 02:48:26;;;;;;;7.03;4.25;;;;;;;22.54;40.56;96224.53;5039740;28;20519;-34
2023/05/28 02:50:52;;;;;;;5.63;3.72;;;;;;;22.35;40.61;96229.16;5036704;28;20131;-33
2023/05/28 02:53:21;;;;;;;5.55;3.75;;;;;;;22.45;40.55;96224.84;5041281;28;20396;-34
2023/05/28 02:55:47;;;;;;;6.03;3.95;;;;;;;22.44;40.62;96220.56;5034691;28;20381;-33
2023/05/28 02:58:13;;;;;;;7.60;3.92;;;;;;;22.34;40.43;96225.66;5048948;28;20054;-33
2023/05/28 03:00:40;;;;;;;6.45;4.10;;;;;;;22.39;40.61;96221.34;5034654;28;20045;-33
2023/05/28 03:03:05;;;;;;;6.05;3.90;;;;;;;22.42;40.90;96226.59;5041412;28;20025;-33
2023/05/28 03:05:33;;;;;;;6.32;3.80;;;;;;;22.29;41.20;96220.13;5041425;28;20021;-34
2023/05/28 03:07:59;;;;;;;6.03;3.63;;;;;;;22.33;41.15;96218.63;5034720;28;20028;-33
2023/05/28 03:10:25;;;;;;;5.80;3.60;;;;;;;22.27;41.11;96222.66;5041488;28;20424;-33
2023/05/28 03:12:50;;;;;;;6.25;4.10;;;;;;;22.28;41.01;96216.63;5033793;28;20032;-33
2023/05/28 03:15:16;;;;;;;6.18;4.13;;;;;;;22.39;40.86;96222.09;5034150;28;20021;-34
2023/05/28 03:17:41;;;;;;;8.90;3.90;;;;;;;22.51;40.93;96211.75;5034015;28;20371;-33
2023/05/28 03:20:10;;;;;;;6.93;4.13;;;;;;;22.37;41.04;96208.06;5034051;28;20477;-33
2023/05/28 03:22:39;;;;;;;4.78;3.88;;;;;;;22.62;40.78;96205.41;5034554;28;20025;-34
2023/05/28 03:25:08;;;;;;;6.32;3.78;;;;;;;22.38;41.21;96203.25;5041179;28;20021;-33
2023/05/28 03:27:33;;;;;;;5.25;4.10;;;;;;;22.60;40.74;96207.94;5034284;28;20029;-35
2023/05/28 03:29:59;;;;;;;6.35;4.20;;;;;;;22.51;40.66;96218.00;5033810;28;20350;-33
2023/05/28 03:32:24;;;;;;;6.43;3.65;;;;;;;22.44;41.21;96209.53;5033736;28;20048;-33
2023/05/28 03:34:50;;;;;;;4.90;4.05;;;;;;;22.45;40.74;96211.03;5034358;28;20373;-33
2023/05/28 03:37:15;;;;;;;5.15;3.85;;;;;;;22.32;41.13;96211.59;5038906;28;20028;-34
2023/05/28 03:39:41;;;;;;;4.75;3.85;;;;;;;22.31;41.09;96217.63;5042920;28;20021;-34
2023/05/28 03:42:07;;;;;;;7.88;4.03;;;;;;;22.52;40.89;96208.47;5040655;28;20524;-33
2023/05/28 03:44:33;;;;;;;6.53;4.00;;;;;;;22.39;41.63;96218.59;5033632;28;20018;-35
2023/05/28 03:46:59;;;;;;;4.70;3.60;;;;;;;22.40;41.16;96214.56;5033749;28;20112;-33
2023/05/28 03:49:24;;;;;;;6.63;4.18;;;;;;;22.36;41.48;96225.16;5033821;28;20017;-33
2023/05/28 03:51:50;;;;;;;6.30;3.45;;;;;;;22.27;41.75;96222.66;5033978;28;20079;-33
2023/05/28 03:54:15;;;;;;;7.28;4.18;;;;;;;22.32;41.87;96230.19;5033167;28;20045;-33
2023/05/28 03:56:41;;;;;;;6.10;4.03;;;;;;;22.29;41.50;96226.41;5039846;28;20029;-33
2023/05/28 03:59:06;;;;;;;6.03;3.92;;;;;;;22.36;41.61;96231.44;5041896;28;20034;-33
2023/05/28 04:01:34;;;;;;;8.05;3.90;;;;;;;22.25;41.89;96236.25;5031985;28;20025;-33
2023/05/28 04:03:59;;;;;;;7.78;4.35;;;;;;;22.39;41.49;96240.69;5039972;28;20021;-33
2023/05/28 04:06:24;;;;;;;5.90;4.28;;;;;;;22.38;41.96;96242.69;5043790;28;20032;-33
2023/05/28 04:08:50;;;;;;;7.75;3.70;;;;;;;22.44;41.86;96248.22;5034660;28;20362;-33
2023/05/28 04:11:15;;;;;;;7.68;3.85;;;;;;;22.48;41.55;96241.16;5040899;28;20461;-33
2023/05/28 04:13:41;;;;;;;5.43;3.70;;;;;;;22.47;41.67;96238.91;5040622;28;20096;-34
2023/05/28 04:16:07;;;;;;;8.00;4.35;;;;;;;22.34;41.96;96239.47;5033493;28;20041;-33
2023/05/28 04:18:33;;;;;;;6.43;4.20;;;;;;;22.43;41.71;96238.41;5033767;28;20021;-33
2023/05/28 04:20:58;;;;;;;6.95;3.70;;;;;;;22.43;41.74;96232.88;5038783;28;20017;-33
2023/05/28 04:23:24;;;;;;;6.78;4.10;;;;;;;22.54;41.95;96239.13;5035529;28;20031;-33
2023/05/28 04:25:50;;;;;;;5.93;3.97;;;;;;;22.32;42.37;96250.28;5036606;28;20021;-33
2023/05/28 04:28:15;;;;;;;6.32;4.15;;;;;;;22.44;42.16;96251.72;5037059;28;20477;-34
2023/05/28 04:30:41;;;;;;;6.47;3.95;;;;;;;22.47;42.00;96242.44;5033479;28;20036;-34
2023/05/28 04:33:06;;;;;;;6.65;3.83;;;;;;;22.36;42.46;96244.50;5033324;28;20104;-33
2023/05/28 04:35:32;;;;;;;7.00;3.88;;;;;;;22.38;42.08;96253.00;5033247;28;20083;-33
2023/05/28 04:37:59;;;;;;;8.80;4.53;;;;;;;22.38;42.14;96248.22;5033421;28;20071;-33
2023/05/28 04:40:24;;;;;;;5.95;3.97;;;;;;;22.38;42.36;96253.75;5032954;28;20417;-34
2023/05/28 04:42:53;;;;;;;6.10;4.38;;;;;;;22.30;42.46;96263.84;5040538;28;20057;-33
2023/05/28 04:45:19;;;;;;;7.03;4.07;;;;;;;22.49;42.04;96256.50;5033105;28;20033;-34
2023/05/28 04:47:45;;;;;;;5.32;3.60;;;;;;;22.19;42.95;96261.13;5033125;28;20032;-33
2023/05/28 04:50:11;;;;;;;6.35;4.75;;;;;;;22.35;42.67;96254.78;5033337;28;20032;-33
2023/05/28 04:52:37;;;;;;;8.98;5.55;;;;;;;22.37;42.50;96255.03;5035986;28;20022;-33
2023/05/28 04:55:06;;;;;;;8.70;5.97;;;;;;;22.52;42.53;96260.97;5037670;28;20129;-33
2023/05/28 04:57:32;;;;;;;6.97;5.80;;;;;;;22.44;42.81;96262.03;5047203;28;20017;-33
2023/05/28 04:59:58;;;;;;;11.57;6.70;;;;;;;22.11;43.29;96255.38;5046106;28;20021;-33
2023/05/28 05:02:24;;;;;;;7.15;5.30;;;;;;;22.54;42.70;96261.22;5039217;28;20028;-33
2023/05/28 05:04:49;;;;;;;7.97;5.93;;;;;;;22.36;43.29;96258.31;5040644;28;20033;-33
2023/05/28 05:07:15;;;;;;;7.85;5.15;;;;;;;22.46;42.70;96263.03;5036532;28;20036;-33
2023/05/28 05:09:41;;;;;;;7.63;5.28;;;;;;;22.57;43.08;96254.69;5036564;28;20462;-33
2023/05/28 05:12:07;;;;;;;7.40;5.55;;;;;;;22.44;43.27;96260.00;5043446;28;20033;-34
2023/05/28 05:14:33;;;;;;;10.25;5.28;;;;;;;22.46;43.15;96257.50;5046349;28;20052;-34
2023/05/28 05:16:58;;;;;;;8.20;5.15;;;;;;;22.36;43.46;96256.28;5040372;28;20405;-33
2023/05/28 05:19:25;;;;;;;9.38;4.65;;;;;;;22.28;43.99;96249.78;5036365;28;20029;-33
2023/05/28 05:21:51;;;;;;;6.78;4.20;;;;;;;22.52;43.14;96260.97;5043686;28;20025;-33
2023/05/28 05:24:16;;;;;;;6.32;4.40;;;;;;;22.67;42.91;96248.84;5035906;28;20109;-33
2023/05/28 05:26:42;;;;;;;5.88;4.32;;;;;;;22.44;43.79;96256.50;5036777;28;20100;-34
2023/05/28 05:29:07;;;;;;;6.43;4.00;;;;;;;22.50;43.87;96260.72;5043054;28;20025;-33
2023/05/28 05:31:32;;;;;;;6.22;4.28;;;;;;;22.56;43.75;96263.47;5043599;28;20032;-34
2023/05/28 05:33:58;;;;;;;6.18;4.28;;;;;;;22.47;44.07;96255.50;5035804;28;20028;-33
2023/05/28 05:36:23;;;;;;;6.75;4.05;;;;;;;22.57;43.91;96254.69;5034671;28;20377;-33
2023/05/28 05:38:49;;;;;;;6.90;4.72;;;;;;;22.55;43.75;96251.66;5037864;28;20470;-33
2023/05/28 05:41:14;;;;;;;7.03;4.50;;;;;;;22.69;43.93;96251.84;5041604;28;20029;-33
2023/05/28 05:43:40;;;;;;;7.93;5.10;;;;;;;22.69;43.95;96258.13;5035635;28;20469;-33
2023/05/28 05:46:05;;;;;;;7.03;3.92;;;;;;;22.55;44.00;96262.72;5036135;28;20014;-33
2023/05/28 05:48:30;;;;;;;7.00;4.22;;;;;;;22.60;44.19;96271.50;5042980;28;20025;-33
2023/05/28 05:50:57;;;;;;;8.07;4.07;;;;;;;22.77;43.82;96261.13;5036158;28;20063;-34
2023/05/28 05:53:24;;;;;;;5.82;4.10;;;;;;;22.72;43.87;96259.88;5034901;28;20478;-34
2023/05/28 05:55:49;;;;;;;6.65;4.38;;;;;;;22.65;44.41;96265.94;5042493;28;20029;-33
2023/05/28 05:58:15;;;;;;;8.05;4.32;;;;;;;22.71;44.35;96258.38;5035902;28;20491;-33
2023/05/28 06:00:41;;;;;;;6.65;4.18;;;;;;;22.69;44.32;96277.50;5041050;28;20535;-33
2023/05/28 06:03:07;;;;;;;7.85;4.30;;;;;;;22.78;44.08;96268.16;5043352;28;20120;-33
2023/05/28 06:05:33;;;;;;;5.80;4.15;;;;;;;22.78;44.03;96259.88;5041835;28;20121;-33
2023/05/28 06:07:59;;;;;;;6.72;4.32;;;;;;;22.86;44.00;96264.34;5035591;28;20357;-33
2023/05/28 06:10:26;;;;;;;7.13;4.22;;;;;;;22.63;44.88;96270.47;5035478;28;20021;-33
2023/05/28 06:12:52;;;;;;;9.80;5.43;;;;;;;22.88;44.21;96263.81;5034917;28;20021;-33
2023/05/28 06:15:17;;;;;;;9.38;5.43;;;;;;;22.75;44.67;96264.38;5035384;28;20409;-33
2023/05/28 06:17:43;;;;;;;8.00;4.82;;;;;;;22.75;44.60;96269.19;5042564;28;20086;-33
2023/05/28 06:20:09;;;;;;;7.50;5.05;;;;;;;22.74;44.91;96262.91;5041822;28;20023;-33
2023/05/28 06:22:35;;;;;;;6.40;4.82;;;;;;;22.73;44.99;96268.94;5043026;28;20045;-33
2023/05/28 06:25:01;;;;;;;6.88;4.13;;;;;;;23.01;44.28;96268.78;5035487;28;20017;-34
2023/05/28 06:27:27;;;;;;;8.35;4.38;;;;;;;22.79;44.85;96261.38;5034980;28;20024;-33
2023/05/28 06:29:53;;;;;;;5.82;3.97;;;;;;;22.85;44.46;96262.09;5038193;28;20017;-33
2023/05/28 06:32:18;;;;;;;5.78;4.05;;;;;;;22.92;44.64;96267.06;5038936;28;20025;-33
2023/05/28 06:34:44;;;;;;;7.57;4.43;;;;;;;22.90;44.82;96264.81;5041956;28;20459;-34
2023/05/28 06:37:10;;;;;;;7.03;4.60;;;;;;;22.66;45.11;96269.47;5034881;28;20032;-33
2023/05/28 06:39:36;;;;;;;8.07;4.13;;;;;;;23.01;44.64;96263.25;5042173;28;20079;-34
2023/05/28 06:42:02;;;;;;;6.07;4.75;;;;;;;22.79;45.04;96270.41;5035164;28;20487;-33
2023/05/28 06:44:28;;;;;;;7.13;4.50;;;;;;;22.91;44.85;96262.81;5040556;28;20033;-33
2023/05/28 06:46:54;;;;;;;5.25;3.80;;;;;;;22.88;44.98;96272.13;5043188;28;20020;-33
2023/05/28 06:49:19;;;;;;;7.15;4.43;;;;;;;22.94;44.71;96264.56;5038634;28;20079;-34
2023/05/28 06:51:45;;;;;;;8.80;4.60;;;;;;;22.88;45.15;96266.59;5037169;28;20033;-33
2023/05/28 06:54:10;;;;;;;6.82;4.55;;;;;;;22.89;44.95;96262.56;5034490;28;20103;-34
2023/05/28 06:56:36;;;;;;;6.93;4.30;;;;;;;23.13;44.56;96270.94;5034743;28;20501;-33
2023/05/28 06:59:01;;;;;;;6.25;4.28;;;;;;;22.80;45.19;96266.38;5034184;28;20017;-33
2023/05/28 07:01:28;;;;;;;7.85;4.53;;;;;;;23.11;44.68;96264.44;5034285;28;20386;-35
2023/05/28 07:03:53;;;;;;;4.95;3.95;;;;;;;23.14;45.00;96258.63;5034627;28;20021;-33
2023/05/28 07:06:19;;;;;;;6.88;3.60;;;;;;;23.10;44.83;96260.94;5041323;28;20029;-33
2023/05/28 07:08:45;;;;;;;7.03;4.15;;;;;;;23.24;44.95;96267.38;5034392;28;20013;-33
2023/05/28 07:11:11;;;;;;;7.50;4.32;;;;;;;23.26;44.84;96259.28;5034355;28;20013;-33
2023/05/28 07:13:37;;;;;;;5.60;4.05;;;;;;;23.00;45.39;96265.25;5033978;28;20055;-33
2023/05/28 07:16:02;;;;;;;6.40;4.20;;;;;;;23.12;45.03;96266.69;5033654;28;20057;-33
2023/05/28 07:18:28;;;;;;;6.65;4.28;;;;;;;22.90;45.83;96266.84;5035349;28;20029;-33
2023/05/28 07:20:53;;;;;;;7.47;4.47;;;;;;;23.13;45.18;96270.94;5046816;28;20021;-34
2023/05/28 07:23:19;;;;;;;7.20;4.65;;;;;;;23.15;45.09;96268.44;5041055;28;20025;-33
2023/05/28 07:25:44;;;;;;;6.30;4.10;;;;;;;23.21;45.08;96276.69;5034349;28;20095;-33
2023/05/28 07:28:10;;;;;;;6.95;4.05;;;;;;;23.22;44.96;96270.66;5033604;28;20507;-33
2023/05/28 07:30:35;;;;;;;6.22;3.75;;;;;;;23.42;44.35;96274.25;5033784;28;20030;-34
2023/05/28 07:33:01;;;;;;;4.95;3.88;;;;;;;23.26;45.08;96268.34;5034016;28;20508;-33
2023/05/28 07:35:26;;;;;;;7.07;4.28;;;;;;;23.37;45.03;96266.78;5040908;28;20867;-33
2023/05/28 07:37:55;;;;;;;5.53;4.30;;;;;;;23.38;44.91;96262.72;5036038;28;20100;-33
2023/05/28 07:40:21;;;;;;;9.60;4.57;;;;;;;23.27;45.29;96258.78;5046025;28;20483;-33
2023/05/28 07:42:47;;;;;;;7.72;4.68;;;;;;;23.53;44.83;96258.34;5034067;28;20025;-34
2023/05/28 07:45:12;;;;;;;5.45;4.43;;;;;;;23.43;45.00;96259.16;5040143;28;20082;-33
2023/05/28 07:47:38;;;;;;;8.90;4.47;;;;;;;23.51;44.72;96254.59;5033599;28;20025;-33
2023/05/28 07:50:04;;;;;;;6.88;4.22;;;;;;;23.37;45.24;96253.66;5033976;28;20021;-33
2023/05/28 07:52:29;;;;;;;6.13;3.90;;;;;;;23.39;45.01;96258.69;5040837;28;20021;-34
2023/05/28 07:54:58;;;;;;;5.43;4.10;;;;;;;23.58;44.92;96254.78;5040851;28;20412;-33
2023/05/28 07:57:24;;;;;;;4.80;3.83;;;;;;;23.35;45.13;96263.78;5032030;28;20482;-33
2023/05/28 07:59:49;;;;;;;7.25;4.47;;;;;;;23.45;45.25;96256.63;5033674;28;20070;-33
2023/05/28 08:02:15;;;;;;;5.07;3.60;;;;;;;23.47;45.29;96254.09;5033668;28;21615;-33
2023/05/28 08:04:40;;;;;;;5.28;4.22;;;;;;;23.55;45.28;96255.06;5039057;28;20022;-33
2023/05/28 08:07:06;;;;;;;7.30;4.28;;;;;;;23.44;45.82;96255.13;5029410;28;20013;-33
2023/05/28 08:09:32;;;;;;;7.00;3.97;;;;;;;23.56;45.44;96251.03;5026382;28;20029;-33
2023/05/28 08:12:01;;;;;;;6.38;3.80;;;;;;;23.42;46.14;96255.66;5040850;28;20029;-33
2023/05/28 08:14:27;;;;;;;5.72;4.07;;;;;;;23.48;45.76;96263.91;5033423;28;20026;-33
2023/05/28 08:16:53;;;;;;;7.85;4.03;;;;;;;23.34;46.46;96256.72;5033432;28;20069;-33
2023/05/28 08:19:18;;;;;;;6.72;4.50;;;;;;;23.53;45.94;96257.59;5033479;28;20030;-33
2023/05/28 08:21:44;;;;;;;5.28;3.88;;;;;;;23.52;46.36;96250.56;5040796;28;20017;-34
2023/05/28 08:24:10;;;;;;;4.55;3.97;;;;;;;23.55;46.47;96252.28;5039462;28;20021;-35
2023/05/28 08:26:36;;;;;;;9.60;4.13;;;;;;;23.44;46.93;96255.13;5036607;28;20029;-33
2023/05/28 08:29:04;;;;;;;5.45;3.80;;;;;;;23.56;46.20;96246.25;5042914;28;20044;-33
2023/05/28 08:31:30;;;;;;;6.20;4.10;;;;;;;23.62;46.29;96249.69;5037571;28;20104;-33
2023/05/28 08:33:56;;;;;;;5.63;3.80;;;;;;;23.59;46.36;96255.53;5029998;28;20059;-33
2023/05/28 08:36:21;;;;;;;6.85;4.15;;;;;;;23.67;46.32;96245.38;5036012;28;20056;-33
2023/05/28 08:38:46;;;;;;;7.30;3.88;;;;;;;23.56;46.95;96242.72;5038398;28;20048;-33
2023/05/28 08:41:12;;;;;;;4.85;3.97;;;;;;;23.55;46.77;96241.97;5050458;28;20063;-33
2023/05/28 08:43:38;;;;;;;6.93;4.28;;;;;;;23.57;46.59;96239.44;5043661;28;20029;-33
2023/05/28 08:46:03;;;;;;;5.93;4.20;;;;;;;23.58;46.78;96245.72;5044605;28;20029;-33
2023/05/28 08:48:33;;;;;;;5.57;4.13;;;;;;;23.51;46.76;96240.75;5036931;28;20025;-34
2023/05/28 08:50:59;;;;;;;5.38;3.90;;;;;;;23.67;46.86;96250.94;5035906;28;20112;-34
2023/05/28 08:53:29;;;;;;;6.32;3.90;;;;;;;23.64;46.74;96243.66;5040785;28;20128;-33
2023/05/28 08:55:55;;;;;;;6.80;4.57;;;;;;;23.60;46.98;96238.41;5037617;28;20033;-35
2023/05/28 08:58:21;;;;;;;13.43;8.05;;;;;;;23.67;46.84;96241.88;5029642;28;20029;-34
2023/05/28 09:00:49;;;;;;;10.80;6.15;;;;;;;23.57;47.00;96244.22;5044042;28;20017;-33
2023/05/28 09:03:15;;;;;;;8.45;5.25;;;;;;;23.72;46.85;96249.38;5036509;28;20126;-33
2023/05/28 09:05:40;;;;;;;8.82;5.00;;;;;;;23.73;46.58;96246.09;5036576;28;20021;-33
2023/05/28 09:08:08;;;;;;;6.70;4.28;;;;;;;23.70;46.88;96244.34;5035937;28;20013;-33
2023/05/28 09:10:34;;;;;;;4.93;3.65;;;;;;;23.72;46.63;96241.06;5043413;28;20507;-33
2023/05/28 09:13:01;;;;;;;6.65;4.18;;;;;;;23.74;46.57;96228.19;5043392;28;20381;-33
2023/05/28 09:15:28;;;;;;;7.93;3.90;;;;;;;23.74;46.68;96233.72;5038650;28;20033;-33
2023/05/28 09:17:53;;;;;;;5.05;4.32;;;;;;;23.59;47.30;96230.63;5041919;28;20033;-33
2023/05/28 09:20:19;;;;;;;7.72;4.28;;;;;;;23.56;47.11;96229.63;5036687;28;20389;-34
2023/05/28 09:22:44;;;;;;;6.63;4.13;;;;;;;23.74;46.80;96230.22;5043083;28;20021;-34
2023/05/28 09:25:10;;;;;;;6.00;3.50;;;;;;;23.77;46.45;96241.00;5036204;28;20037;-33
2023/05/28 09:27:36;;;;;;;5.90;3.58;;;;;;;23.77;46.46;96235.47;5036530;28;20017;-33
2023/05/28 09:30:08;;;;;;;5.47;3.72;;;;;;;23.71;46.57;96236.81;5043614;28;20024;-33
2023/05/28 09:32:34;;;;;;;6.10;3.80;;;;;;;23.78;46.91;96236.97;5036165;28;20115;-33
2023/05/28 09:35:00;;;;;;;4.03;3.58;;;;;;;23.79;46.76;96244.00;5036090;28;20355;-34
2023/05/28 09:37:29;;;;;;;3.97;3.28;;;;;;;23.83;46.38;96244.47;5034324;28;20032;-33
2023/05/28 09:40:06;;;;;;;5.32;3.75;;;;;;;23.78;46.77;96245.28;5050214;28;20021;-33
2023/05/28 09:42:42;;;;;;;4.40;3.45;;;;;;;23.74;46.91;96250.34;5042760;28;20021;-34
2023/05/28 09:45:09;;;;;;;4.97;3.50;;;;;;;23.85;46.29;96244.72;5031564;28;20017;-33
2023/05/28 09:47:44;;;;;;;6.35;3.70;;;;;;;23.90;45.53;96246.66;5039452;28;20068;-33
2023/05/28 09:50:11;;;;;;;6.45;3.85;;;;;;;23.83;45.93;96244.47;5043359;28;20056;-34
2023/05/28 09:52:39;;;;;;;8.35;3.65;;;;;;;23.81;45.83;96241.47;5035527;28;20022;-34
2023/05/28 09:55:07;;;;;;;3.58;3.25;;;;;;;23.89;45.79;96239.63;5035812;28;20116;-33
2023/05/28 09:57:35;;;;;;;4.30;3.45;;;;;;;23.87;45.87;96231.06;5035650;28;20476;-34
2023/05/28 10:00:12;;;;;;;43.35;7.22;;;;;;;23.86;46.41;96239.94;5043092;28;20021;-33
2023/05/28 10:02:55;;;;;;;17.58;4.47;;;;;;;23.90;46.29;96234.84;5047571;28;20028;-34
2023/05/28 10:05:23;;;;;;;13.20;4.00;;;;;;;23.96;45.83;96238.31;5035575;28;20530;-33
2023/05/28 10:07:52;;;;;;;10.50;4.30;;;;;;;23.92;46.02;96227.50;5034957;28;20026;-34
2023/05/28 10:10:20;;;;;;;8.68;4.10;;;;;;;23.91;45.90;96225.25;5033833;28;20151;-33
2023/05/28 10:12:47;;;;;;;6.07;4.20;;;;;;;24.01;46.14;96223.63;5035670;28;20104;-33
2023/05/28 10:15:14;;;;;;;7.90;3.92;;;;;;;23.91;45.80;96222.50;5042588;28;20047;-33
2023/05/28 10:17:41;;;;;;;5.63;3.88;;;;;;;23.99;45.52;96226.91;5030735;28;20021;-33
2023/05/28 10:20:10;;;;;;;6.50;3.88;;;;;;;24.00;45.97;96214.56;5039198;28;20363;-33
2023/05/28 10:22:36;;;;;;;4.95;3.70;;;;;;;24.02;46.12;96224.38;5049273;28;20025;-33
2023/05/28 10:25:02;;;;;;;5.50;3.63;;;;;;;24.02;46.06;96230.66;5035221;28;20024;-34
2023/05/28 10:27:31;;;;;;;6.10;3.45;;;;;;;24.00;46.06;96224.91;5035308;28;20029;-34
2023/05/28 10:29:56;;;;;;;8.00;4.65;;;;;;;24.10;45.62;96217.00;5035122;28;20017;-33
2023/05/28 10:32:22;;;;;;;6.47;3.47;;;;;;;24.09;45.39;96221.78;5042192;28;20079;-33
2023/05/28 10:34:48;;;;;;;7.72;3.80;;;;;;;23.99;45.53;96213.06;5040786;28;20029;-33
2023/05/28 10:37:23;;;;;;;6.15;3.67;;;;;;;24.09;45.47;96215.50;5033718;28;20037;-35
2023/05/28 10:39:48;;;;;;;8.13;3.55;;;;;;;24.07;45.24;96212.50;5042233;28;20027;-33
2023/05/28 10:42:15;;;;;;;5.05;3.45;;;;;;;24.21;44.64;96214.84;5034508;28;20033;-33
2023/05/28 10:44:59;;;;;;;4.90;3.83;;;;;;;24.10;45.23;96203.16;5041268;28;20020;-33
2023/05/28 10:47:32;;;;;;;5.60;3.60;;;;;;;24.08;45.30;96205.69;5013390;28;20022;-33
2023/05/28 10:50:00;;;;;;;6.75;4.03;;;;;;;24.15;45.47;96207.84;5034076;28;20030;-33
2023/05/28 10:52:25;;;;;;;5.85;3.88;;;;;;;24.13;45.20;96207.63;5040520;28;20497;-33
2023/05/28 10:54:54;;;;;;;9.50;4.10;;;;;;;24.21;45.41;96200.25;5034109;28;20049;-34
2023/05/28 10:57:20;;;;;;;6.20;3.90;;;;;;;24.20;45.65;96207.81;5027213;28;20028;-34
2023/05/28 10:59:52;;;;;;;4.53;3.67;;;;;;;24.22;45.47;96199.75;5034025;28;20021;-34
2023/05/28 11:02:25;;;;;;;5.45;3.80;;;;;;;24.20;45.45;96196.72;5043915;28;20384;-33
2023/05/28 11:05:02;;;;;;;6.55;3.70;;;;;;;24.28;45.24;96186.56;5045793;28;20408;-35
2023/05/28 11:07:38;;;;;;;6.68;4.72;;;;;;;24.24;45.44;96182.56;5048498;28;20024;-33
2023/05/28 11:10:06;;;;;;;5.90;3.80;;;;;;;24.17;45.77;96181.13;5033951;28;20021;-33
2023/05/28 11:12:35;;;;;;;6.50;4.10;;;;;;;24.25;45.34;96189.63;5041262;28;20075;-33
2023/05/28 11:15:01;;;;;;;9.57;4.75;;;;;;;24.32;44.77;96180.72;5040909;28;20013;-33
2023/05/28 11:17:27;;;;;;;10.50;4.15;;;;;;;24.33;44.41;96182.97;5041190;28;20074;-34
2023/05/28 11:19:53;;;;;;;6.68;4.55;;;;;;;24.23;44.41;96183.88;5038504;28;20082;-34
2023/05/28 11:22:20;;;;;;;5.90;4.00;;;;;;;24.24;44.43;96179.81;5043395;28;20094;-33
2023/05/28 11:24:52;;;;;;;8.93;4.40;;;;;;;24.23;44.22;96178.34;5034007;28;20100;-34
2023/05/28 11:27:18;;;;;;;6.78;3.63;;;;;;;24.22;44.26;96168.50;5040572;28;20108;-33
2023/05/28 11:29:43;;;;;;;5.38;3.97;;;;;;;24.30;44.40;96172.19;5034479;28;20117;-33
2023/05/28 11:32:09;;;;;;;5.65;3.65;;;;;;;24.33;43.93;96166.34;5033819;28;20048;-34